createdAt,value
2019-03-09T00:00:12.871Z,2.50
2019-03-09T00:02:42.884Z,2.20
2019-03-09T00:05:12.716Z,2.10
2019-03-09T00:07:42.351Z,2.80
2019-03-09T00:10:11.620Z,2.00
2019-03-09T00:12:40.892Z,2.20
2019-03-09T00:15:10.191Z,2.40
2019-03-09T00:17:39.639Z,2.20
2019-03-09T00:20:08.971Z,2.10
2019-03-09T00:22:38.344Z,2.33
2019-03-09T00:25:17.010Z,2.00
2019-03-09T00:27:54.614Z,2.50
2019-03-09T00:30:54.963Z,2.33
2019-03-09T00:33:24.539Z,2.10
2019-03-09T00:35:53.822Z,2.43
2019-03-09T00:38:23.099Z,1.83
2019-03-09T00:40:52.493Z,2.57
2019-03-09T00:43:22.285Z,2.00
2019-03-09T00:45:51.588Z,2.20
2019-03-09T00:48:20.948Z,1.97
2019-03-09T00:50:50.219Z,2.07
2019-03-09T00:53:19.491Z,2.60
2019-03-09T00:55:49.186Z,2.07
2019-03-09T00:58:18.458Z,2.73
2019-03-09T01:00:47.819Z,2.57
2019-03-09T01:03:17.119Z,2.70
2019-03-09T01:05:46.695Z,2.37
2019-03-09T01:08:16.241Z,1.97
2019-03-09T01:10:45.548Z,3.17
2019-03-09T01:13:14.990Z,2.43
2019-03-09T01:15:44.542Z,2.70
2019-03-09T01:18:14.075Z,2.80
2019-03-09T01:20:43.596Z,2.90
2019-03-09T01:23:12.998Z,2.97
2019-03-09T01:25:42.357Z,3.03
2019-03-09T01:28:11.888Z,2.90
2019-03-09T01:30:41.331Z,2.60
2019-03-09T01:33:10.901Z,2.70
2019-03-09T01:35:40.171Z,3.03
2019-03-09T01:38:09.684Z,2.60
2019-03-09T01:40:39.299Z,2.43
2019-03-09T01:43:08.539Z,2.90
2019-03-09T01:45:37.811Z,2.80
2019-03-09T01:48:07.372Z,1.90
2019-03-09T01:50:36.924Z,2.33
2019-03-09T01:53:06.203Z,2.47
2019-03-09T01:55:35.791Z,2.10
2019-03-09T01:58:05.103Z,2.13
2019-03-09T02:00:34.706Z,2.03
2019-03-09T02:03:04.037Z,1.80
2019-03-09T02:05:33.614Z,2.43
2019-03-09T02:08:03.160Z,2.40
2019-03-09T02:10:32.759Z,2.00
2019-03-09T02:13:02.333Z,2.40
2019-03-09T02:15:32.016Z,1.70
2019-03-09T02:18:01.103Z,2.00
2019-03-09T02:20:30.031Z,2.10
2019-03-09T02:22:58.767Z,1.90
2019-03-09T02:25:27.705Z,1.83
2019-03-09T02:27:56.615Z,1.73
2019-03-09T02:30:25.593Z,1.70
2019-03-09T02:32:54.334Z,1.97
2019-03-09T02:35:23.268Z,2.00
2019-03-09T02:37:52.031Z,1.70
2019-03-09T02:40:23.366Z,1.90
2019-03-09T02:42:52.174Z,1.43
2019-03-09T02:45:21.361Z,2.20
2019-03-09T02:47:50.023Z,1.50
2019-03-09T02:50:18.793Z,1.40
2019-03-09T02:52:47.830Z,1.20
2019-03-09T02:55:16.554Z,1.50
2019-03-09T02:57:45.252Z,1.20
2019-03-09T03:00:15.195Z,1.30
2019-03-09T03:03:03.958Z,1.40
2019-03-09T03:05:32.802Z,1.47
2019-03-09T03:08:01.626Z,1.17
2019-03-09T03:10:30.564Z,1.27
2019-03-09T03:12:59.270Z,1.03
2019-03-09T03:15:31.893Z,0.87
2019-03-09T03:18:00.883Z,0.90
2019-03-09T03:20:29.847Z,1.17
2019-03-09T03:22:58.608Z,1.33
2019-03-09T03:25:27.436Z,0.90
2019-03-09T03:27:56.098Z,0.90
2019-03-09T03:30:24.796Z,1.10
2019-03-09T03:32:55.485Z,0.90
2019-03-09T03:35:24.249Z,1.13
2019-03-09T03:37:52.906Z,0.90
2019-03-09T03:40:21.595Z,1.30
2019-03-09T03:42:50.299Z,1.43
2019-03-09T03:45:19.023Z,1.20
2019-03-09T03:47:48.012Z,1.43
2019-03-09T03:50:16.717Z,1.37
2019-03-09T03:52:45.429Z,1.17
2019-03-09T03:55:14.201Z,1.10
2019-03-09T03:57:42.865Z,1.00
2019-03-09T04:00:11.665Z,1.10
2019-03-09T04:02:40.416Z,0.90
2019-03-09T04:05:09.102Z,1.07
2019-03-09T04:07:37.813Z,0.80
2019-03-09T04:10:06.616Z,1.03
2019-03-09T04:12:35.590Z,1.00
2019-03-09T04:15:04.625Z,1.10
2019-03-09T04:17:33.291Z,0.97
2019-03-09T04:20:01.999Z,0.90
2019-03-09T04:22:31.009Z,1.00
2019-03-09T04:25:00.051Z,1.03
2019-03-09T04:27:28.715Z,0.77
2019-03-09T04:29:57.431Z,1.00
2019-03-09T04:32:26.119Z,1.00
2019-03-09T04:34:55.141Z,1.07
2019-03-09T04:37:23.802Z,0.87
2019-03-09T04:39:52.551Z,1.00
2019-03-09T04:42:21.204Z,0.67
2019-03-09T04:44:49.943Z,0.63
2019-03-09T04:47:18.990Z,0.80
2019-03-09T04:49:48.267Z,0.70
2019-03-09T04:52:16.986Z,0.60
2019-03-09T04:54:47.438Z,0.60
2019-03-09T04:57:16.404Z,0.70
2019-03-09T04:59:45.316Z,0.70
2019-03-09T05:02:14.236Z,0.77
2019-03-09T05:04:44.032Z,0.70
2019-03-09T05:07:14.130Z,0.70
2019-03-09T05:10:02.203Z,0.63
2019-03-09T05:12:31.055Z,0.70
2019-03-09T05:14:59.718Z,0.80
2019-03-09T05:17:28.398Z,1.10
2019-03-09T05:19:57.087Z,1.23
2019-03-09T05:22:26.164Z,1.50
2019-03-09T05:24:54.863Z,1.70
2019-03-09T05:27:24.123Z,1.70
2019-03-09T05:29:53.130Z,1.30
2019-03-09T05:32:22.152Z,1.33
2019-03-09T05:34:51.083Z,1.50
2019-03-09T05:37:20.389Z,1.60
2019-03-09T05:39:49.696Z,1.90
2019-03-09T05:42:18.987Z,1.47
2019-03-09T05:44:48.294Z,1.73
2019-03-09T05:47:17.892Z,1.50
2019-03-09T05:49:47.151Z,2.00
2019-03-09T05:52:35.255Z,2.00
2019-03-09T05:55:14.358Z,1.83
2019-03-09T05:57:44.059Z,1.90
2019-03-09T06:00:15.180Z,1.80
2019-03-09T06:02:44.483Z,2.13
2019-03-09T06:05:45.858Z,2.03
2019-03-09T06:08:15.133Z,2.30
2019-03-09T06:10:44.078Z,2.13
2019-03-09T06:13:12.769Z,2.47
2019-03-09T06:15:41.431Z,2.27
2019-03-09T06:18:10.364Z,2.80
2019-03-09T06:20:39.118Z,4.00
2019-03-09T06:23:07.768Z,3.90
2019-03-09T06:25:38.558Z,4.50
2019-03-09T06:28:06.852Z,4.97
2019-03-09T06:30:35.776Z,4.90
2019-03-09T06:33:23.896Z,5.00
2019-03-09T06:35:54.447Z,5.07
2019-03-09T06:38:35.101Z,4.53
2019-03-09T06:41:03.755Z,4.07
2019-03-09T06:43:32.457Z,3.40
2019-03-09T06:46:01.767Z,3.17
2019-03-09T06:48:30.643Z,2.90
2019-03-09T06:50:59.848Z,3.63
2019-03-09T06:53:29.449Z,2.77
2019-03-09T06:55:59.063Z,2.90
2019-03-09T06:58:28.379Z,2.33
2019-03-09T07:00:57.231Z,2.70
2019-03-09T07:03:25.904Z,3.10
2019-03-09T07:05:54.563Z,3.00
2019-03-09T07:08:23.247Z,3.07
2019-03-09T07:10:51.921Z,3.20
2019-03-09T07:13:20.575Z,3.00
2019-03-09T07:15:49.246Z,3.63
2019-03-09T07:18:19.087Z,3.20
2019-03-09T07:20:47.751Z,2.93
2019-03-09T07:23:16.689Z,3.10
2019-03-09T07:25:45.551Z,3.40
2019-03-09T07:28:15.172Z,3.60
2019-03-09T07:30:43.859Z,3.30
2019-03-09T07:33:12.860Z,3.77
2019-03-09T07:35:41.534Z,4.07
2019-03-09T07:38:10.480Z,3.57
2019-03-09T07:40:39.243Z,3.43
2019-03-09T07:43:08.171Z,3.83
2019-03-09T07:45:36.919Z,3.67
2019-03-09T07:48:05.907Z,3.90
2019-03-09T07:50:34.922Z,3.97
2019-03-09T07:53:03.858Z,3.63
2019-03-09T07:55:32.595Z,4.60
2019-03-09T07:58:02.047Z,3.70
2019-03-09T08:00:30.691Z,3.93
2019-03-09T08:02:59.682Z,3.43
2019-03-09T08:05:28.696Z,3.90
2019-03-09T08:07:57.424Z,3.37
2019-03-09T08:10:26.191Z,3.13
2019-03-09T08:12:55.110Z,3.60
2019-03-09T08:15:24.049Z,3.40
2019-03-09T08:17:53.020Z,3.13
2019-03-09T08:20:21.767Z,3.40
2019-03-09T08:22:50.606Z,3.40
2019-03-09T08:25:19.317Z,3.57
2019-03-09T08:27:47.998Z,2.97
2019-03-09T08:30:17.682Z,2.80
2019-03-09T08:32:46.647Z,3.20
2019-03-09T08:35:16.464Z,2.60
2019-03-09T08:37:45.215Z,2.70
2019-03-09T08:40:14.160Z,2.80
2019-03-09T08:42:42.933Z,2.80
2019-03-09T08:45:11.941Z,2.80
2019-03-09T08:47:40.697Z,2.67
2019-03-09T08:50:10.812Z,2.60
2019-03-09T08:52:39.510Z,2.50
2019-03-09T08:55:10.393Z,2.63
2019-03-09T08:57:39.168Z,3.00
2019-03-09T09:00:10.188Z,2.80
2019-03-09T09:02:38.969Z,2.77
2019-03-09T09:05:07.635Z,2.40
2019-03-09T09:07:36.314Z,2.70
2019-03-09T09:10:05.241Z,2.27
2019-03-09T09:12:34.223Z,2.33
2019-03-09T09:15:02.905Z,2.03
2019-03-09T09:17:31.884Z,2.60
2019-03-09T09:20:00.606Z,2.77
2019-03-09T09:22:29.336Z,2.63
2019-03-09T09:24:58.414Z,2.37
2019-03-09T09:27:27.055Z,2.10
2019-03-09T09:29:55.861Z,2.07
2019-03-09T09:32:24.514Z,2.40
2019-03-09T09:34:53.528Z,2.60
2019-03-09T09:37:22.319Z,2.80
2019-03-09T09:39:51.252Z,2.13
2019-03-09T09:42:20.231Z,2.43
2019-03-09T09:44:49.299Z,2.43
2019-03-09T09:47:18.226Z,2.40
2019-03-09T09:49:47.165Z,2.10
2019-03-09T09:52:15.948Z,2.60
2019-03-09T09:54:44.990Z,2.17
2019-03-09T09:57:13.664Z,2.43
2019-03-09T09:59:42.344Z,2.10
2019-03-09T10:02:11.028Z,2.07
2019-03-09T10:04:40.090Z,1.70
2019-03-09T10:07:08.755Z,2.00
2019-03-09T10:09:37.441Z,1.50
2019-03-09T10:12:06.372Z,1.90
2019-03-09T10:14:35.035Z,2.00
2019-03-09T10:17:03.728Z,2.07
2019-03-09T10:19:32.664Z,2.30
2019-03-09T10:22:01.768Z,2.00
2019-03-09T10:24:30.430Z,2.10
2019-03-09T10:26:59.367Z,1.93
2019-03-09T10:29:28.061Z,1.70
2019-03-09T10:31:57.034Z,2.10
2019-03-09T10:34:25.871Z,1.80
2019-03-09T10:36:54.837Z,2.20
2019-03-09T10:39:23.624Z,1.90
2019-03-09T10:41:52.266Z,1.80
2019-03-09T10:44:21.327Z,1.80
2019-03-09T10:46:50.023Z,1.80
2019-03-09T10:49:18.751Z,1.73
2019-03-09T10:51:47.739Z,1.80
2019-03-09T10:54:16.471Z,2.00
2019-03-09T10:56:45.206Z,1.67
2019-03-09T10:59:14.493Z,1.40
2019-03-09T11:01:43.475Z,2.73
2019-03-09T11:04:12.399Z,1.80
2019-03-09T11:06:41.348Z,1.60
2019-03-09T11:09:10.120Z,1.90
2019-03-09T11:11:38.766Z,1.67
2019-03-09T11:14:07.539Z,1.80
2019-03-09T11:16:36.467Z,1.83
2019-03-09T11:19:05.231Z,1.77
2019-03-09T11:21:33.900Z,1.50
2019-03-09T11:24:02.605Z,1.83
2019-03-09T11:26:31.276Z,2.53
2019-03-09T11:29:00.267Z,2.07
2019-03-09T11:31:29.071Z,1.50
2019-03-09T11:33:57.744Z,1.67
2019-03-09T11:36:26.459Z,1.10
2019-03-09T11:38:55.116Z,1.30
2019-03-09T11:41:23.795Z,1.60
2019-03-09T11:43:52.455Z,1.40
2019-03-09T11:46:21.126Z,1.20
2019-03-09T11:48:49.799Z,1.20
2019-03-09T11:51:18.458Z,1.27
2019-03-09T11:53:47.150Z,1.63
2019-03-09T11:56:15.855Z,1.30
2019-03-09T11:58:44.821Z,1.13
2019-03-09T12:01:13.753Z,1.20
2019-03-09T12:03:42.406Z,1.27
2019-03-09T12:06:11.074Z,1.57
2019-03-09T12:08:39.748Z,1.30
2019-03-09T12:11:08.742Z,1.27
2019-03-09T12:13:37.418Z,1.27
2019-03-09T12:16:06.130Z,2.00
2019-03-09T12:18:35.039Z,1.20
2019-03-09T12:21:03.975Z,1.43
2019-03-09T12:23:32.746Z,1.80
2019-03-09T12:26:01.705Z,1.30
2019-03-09T12:28:30.463Z,1.37
2019-03-09T12:30:59.179Z,1.30
2019-03-09T12:33:27.962Z,1.33
2019-03-09T12:35:56.898Z,1.73
2019-03-09T12:38:25.924Z,1.93
2019-03-09T12:40:54.597Z,1.70
2019-03-09T12:43:23.259Z,1.17
2019-03-09T12:45:51.942Z,1.67
2019-03-09T12:48:20.876Z,2.37
2019-03-09T12:50:49.818Z,1.50
2019-03-09T12:53:18.485Z,1.23
2019-03-09T12:55:47.467Z,1.70
2019-03-09T12:58:16.733Z,1.50
2019-03-09T13:00:45.651Z,1.20
2019-03-09T13:03:14.600Z,1.60
2019-03-09T13:05:43.564Z,4.07
2019-03-09T13:08:12.615Z,1.87
2019-03-09T13:10:41.829Z,1.37
2019-03-09T13:13:10.504Z,1.30
2019-03-09T13:15:39.499Z,1.47
2019-03-09T13:18:08.154Z,1.90
2019-03-09T13:20:37.104Z,1.90
2019-03-09T13:23:05.869Z,2.00
2019-03-09T13:25:34.584Z,1.90
2019-03-09T13:28:03.307Z,1.80
2019-03-09T13:30:32.324Z,1.83
2019-03-09T13:33:01.271Z,1.73
2019-03-09T13:35:29.959Z,1.87
2019-03-09T13:37:58.619Z,2.67
2019-03-09T13:40:27.552Z,2.37
2019-03-09T13:42:56.427Z,2.27
2019-03-09T13:45:25.507Z,2.20
2019-03-09T13:47:54.171Z,2.47
2019-03-09T13:50:22.839Z,2.40
2019-03-09T13:52:51.536Z,3.23
2019-03-09T13:55:20.547Z,2.90
2019-03-09T13:57:49.279Z,2.97
2019-03-09T14:00:17.958Z,2.80
2019-03-09T14:02:46.723Z,3.33
2019-03-09T14:05:15.584Z,2.67
2019-03-09T14:07:44.299Z,3.27
2019-03-09T14:10:13.495Z,3.40
2019-03-09T14:12:42.424Z,3.77
2019-03-09T14:15:12.134Z,3.93
2019-03-09T14:17:41.198Z,4.53
2019-03-09T14:20:10.075Z,4.17
2019-03-09T14:22:38.752Z,4.40
2019-03-09T14:25:07.963Z,4.00
2019-03-09T14:27:36.628Z,4.10
2019-03-09T14:30:05.964Z,3.47
2019-03-09T14:32:34.926Z,3.57
2019-03-09T14:35:04.066Z,4.40
2019-03-09T14:37:32.997Z,3.93
2019-03-09T14:40:02.054Z,5.17
2019-03-09T14:42:30.775Z,4.50
2019-03-09T14:44:59.765Z,4.03
2019-03-09T14:47:28.494Z,4.87
2019-03-09T14:49:57.147Z,4.70
2019-03-09T14:52:26.074Z,4.87
2019-03-09T14:54:55.864Z,5.40
2019-03-09T14:57:24.582Z,5.73
2019-03-09T14:59:53.337Z,4.63
2019-03-09T15:02:22.025Z,5.13
2019-03-09T15:04:50.964Z,4.90
2019-03-09T15:07:20.036Z,5.43
2019-03-09T15:09:48.725Z,5.53
2019-03-09T15:12:17.484Z,5.53
2019-03-09T15:14:46.180Z,4.70
2019-03-09T15:17:15.195Z,5.00
2019-03-09T15:19:43.923Z,5.53
2019-03-09T15:22:12.624Z,4.60
2019-03-09T15:24:41.628Z,5.43
2019-03-09T15:27:10.663Z,4.63
2019-03-09T15:29:39.366Z,3.93
2019-03-09T15:32:08.060Z,4.03
2019-03-09T15:34:36.721Z,4.97
2019-03-09T15:37:05.742Z,4.70
2019-03-09T15:39:37.263Z,5.27
2019-03-09T15:42:06.211Z,6.10
2019-03-09T15:44:35.268Z,5.33
2019-03-09T15:47:05.992Z,5.93
2019-03-09T15:49:35.131Z,5.23
2019-03-09T15:52:03.959Z,4.60
2019-03-09T15:54:32.991Z,4.47
2019-03-09T15:57:01.772Z,3.80
2019-03-09T15:59:30.532Z,5.90
2019-03-09T16:02:01.190Z,4.83
2019-03-09T16:04:30.010Z,4.77
2019-03-09T16:06:58.706Z,4.30
2019-03-09T16:09:27.399Z,3.70
2019-03-09T16:11:57.022Z,4.60
2019-03-09T16:14:26.344Z,3.77
2019-03-09T16:16:56.010Z,3.30
2019-03-09T16:19:25.533Z,3.83
2019-03-09T16:21:54.858Z,3.50
2019-03-09T16:24:25.579Z,3.10
2019-03-09T16:26:54.991Z,3.17
2019-03-09T16:29:24.487Z,3.73
2019-03-09T16:31:53.999Z,3.50
2019-03-09T16:34:24.680Z,4.27
2019-03-09T16:36:54.074Z,3.73
2019-03-09T16:39:23.657Z,3.77
2019-03-09T16:41:53.702Z,5.13
2019-03-09T16:44:23.074Z,4.10
2019-03-09T16:46:52.712Z,4.40
2019-03-09T16:49:21.997Z,4.10
2019-03-09T16:51:51.512Z,3.80
2019-03-09T16:54:21.024Z,4.20
2019-03-09T16:56:50.435Z,2.93
2019-03-09T16:59:20.093Z,3.60
2019-03-09T17:01:49.615Z,4.37
2019-03-09T17:04:19.192Z,3.03
2019-03-09T17:06:48.460Z,3.33
2019-03-09T17:09:17.740Z,3.47
2019-03-09T17:11:47.074Z,3.63
2019-03-09T17:14:16.678Z,2.63
2019-03-09T17:16:45.963Z,3.20
2019-03-09T17:19:15.230Z,2.43
2019-03-09T17:21:44.823Z,2.27
2019-03-09T17:24:14.389Z,2.70
2019-03-09T17:26:43.991Z,2.90
2019-03-09T17:29:13.264Z,3.50
2019-03-09T17:31:42.833Z,2.90
2019-03-09T17:34:12.251Z,3.57
2019-03-09T17:36:41.524Z,2.87
2019-03-09T17:39:11.952Z,3.00
2019-03-09T17:41:41.291Z,2.93
2019-03-09T17:44:10.569Z,2.40
2019-03-09T17:46:40.153Z,2.83
2019-03-09T17:49:09.449Z,2.53
2019-03-09T17:51:38.728Z,3.07
2019-03-09T17:54:08.022Z,2.50
2019-03-09T17:56:37.551Z,2.53
2019-03-09T17:59:06.827Z,2.93
2019-03-09T18:01:36.284Z,2.63
2019-03-09T18:04:05.563Z,2.73
2019-03-09T18:06:34.824Z,2.50
2019-03-09T18:09:05.420Z,2.40
2019-03-09T18:11:34.737Z,3.07
2019-03-09T18:14:07.263Z,3.23
2019-03-09T18:16:34.986Z,3.23
2019-03-09T18:19:04.581Z,3.47
2019-03-09T18:21:33.899Z,2.90
2019-03-09T18:24:03.436Z,3.70
2019-03-09T18:26:33.020Z,3.07
2019-03-09T18:29:02.727Z,3.27
2019-03-09T18:31:32.029Z,3.43
2019-03-09T18:34:01.328Z,3.37
2019-03-09T18:36:30.665Z,3.77
2019-03-09T18:39:00.264Z,3.70
2019-03-09T18:41:29.863Z,3.67
2019-03-09T18:43:59.464Z,3.57
2019-03-09T18:46:29.015Z,3.70
2019-03-09T18:48:58.419Z,4.67
2019-03-09T18:51:27.711Z,3.97
2019-03-09T18:53:57.038Z,3.47
2019-03-09T18:56:26.375Z,4.00
2019-03-09T18:58:56.294Z,4.53
2019-03-09T19:01:25.670Z,4.23
2019-03-09T19:03:55.580Z,5.93
2019-03-09T19:06:25.211Z,3.70
2019-03-09T19:08:54.560Z,4.70
2019-03-09T19:11:24.451Z,2.83
2019-03-09T19:13:53.725Z,4.43
2019-03-09T19:16:23.268Z,3.93
2019-03-09T19:18:52.812Z,3.63
2019-03-09T19:21:22.216Z,4.43
2019-03-09T19:23:51.735Z,3.70
2019-03-09T19:26:21.053Z,3.07
2019-03-09T19:28:50.344Z,2.90
2019-03-09T19:31:19.608Z,3.03
2019-03-09T19:33:51.871Z,2.50
2019-03-09T19:36:21.788Z,2.37
2019-03-09T19:38:51.624Z,2.93
2019-03-09T19:41:22.399Z,2.90
2019-03-09T19:43:51.985Z,2.83
2019-03-09T19:46:21.827Z,2.90
2019-03-09T19:48:51.111Z,2.90
2019-03-09T19:51:20.419Z,2.83
2019-03-09T19:53:49.699Z,2.90
2019-03-09T19:56:18.997Z,2.00
2019-03-09T19:58:48.543Z,3.10
2019-03-09T20:01:18.172Z,2.87
2019-03-09T20:03:48.083Z,2.90
2019-03-09T20:06:17.429Z,2.73
2019-03-09T20:08:46.928Z,2.30
2019-03-09T20:11:16.223Z,1.73
2019-03-09T20:13:45.763Z,1.70
2019-03-09T20:16:15.291Z,2.50
2019-03-09T20:18:44.595Z,2.30
2019-03-09T20:21:14.178Z,2.50
2019-03-09T20:23:43.699Z,2.03
2019-03-09T20:26:19.764Z,2.90
2019-03-09T20:28:51.313Z,2.20
2019-03-09T20:31:28.299Z,2.20
2019-03-09T20:33:55.331Z,2.10
2019-03-09T20:36:24.968Z,2.60
2019-03-09T20:38:54.313Z,2.00
2019-03-09T20:41:25.313Z,2.20
2019-03-09T20:43:55.247Z,2.20
2019-03-09T20:46:24.595Z,2.00
2019-03-09T20:48:54.905Z,2.00
2019-03-09T20:51:26.008Z,2.30
2019-03-09T20:53:57.645Z,2.00
2019-03-09T20:56:27.023Z,1.97
2019-03-09T20:58:56.346Z,2.43
2019-03-09T21:01:25.655Z,1.90
2019-03-09T21:03:55.527Z,2.00
2019-03-09T21:06:25.706Z,2.03
2019-03-09T21:08:55.143Z,2.27
2019-03-09T21:11:24.579Z,1.97
2019-03-09T21:13:53.919Z,2.20
2019-03-09T21:16:23.184Z,2.53
2019-03-09T21:18:52.487Z,2.27
2019-03-09T21:21:21.772Z,2.30
2019-03-09T21:23:51.367Z,2.87
2019-03-09T21:26:20.632Z,2.10
2019-03-09T21:28:49.891Z,1.97
2019-03-09T21:31:19.183Z,2.37
2019-03-09T21:33:48.983Z,2.57
2019-03-09T21:36:18.591Z,2.70
2019-03-09T21:38:48.177Z,2.57
2019-03-09T21:41:17.533Z,2.60
2019-03-09T21:43:46.853Z,2.03
2019-03-09T21:46:16.275Z,3.10
2019-03-09T21:48:45.843Z,3.07
2019-03-09T21:51:15.114Z,3.77
2019-03-09T21:53:44.652Z,3.50
2019-03-09T21:56:17.796Z,3.90
2019-03-09T21:58:47.301Z,3.63
2019-03-09T22:01:17.190Z,3.17
2019-03-09T22:03:46.828Z,3.47
2019-03-09T22:06:17.223Z,4.13
2019-03-09T22:08:46.845Z,3.67
2019-03-09T22:11:19.107Z,4.63
2019-03-09T22:13:48.455Z,4.40
2019-03-09T22:16:18.016Z,3.60
2019-03-09T22:18:47.579Z,4.10
2019-03-09T22:21:17.851Z,4.50
2019-03-09T22:23:47.439Z,5.13
2019-03-09T22:26:17.049Z,5.67
2019-03-09T22:28:46.671Z,5.13
2019-03-09T22:31:17.639Z,5.40
2019-03-09T22:33:47.174Z,6.33
2019-03-09T22:36:16.808Z,5.53
2019-03-09T22:38:46.356Z,5.10
2019-03-09T22:41:16.816Z,6.57
2019-03-09T22:43:46.460Z,6.70
2019-03-09T22:46:15.983Z,5.60
2019-03-09T22:48:45.356Z,6.57
2019-03-09T22:51:14.716Z,6.67
2019-03-09T22:53:44.090Z,6.70
2019-03-09T22:56:14.716Z,6.53
2019-03-09T22:58:45.270Z,6.57
2019-03-09T23:01:15.448Z,5.90
2019-03-09T23:03:45.171Z,6.50
2019-03-09T23:06:14.631Z,7.53
2019-03-09T23:08:44.394Z,6.67
2019-03-09T23:11:13.959Z,7.03
2019-03-09T23:13:43.556Z,6.73
2019-03-09T23:16:13.199Z,6.30
2019-03-09T23:18:42.541Z,8.20
2019-03-09T23:21:11.863Z,7.23
2019-03-09T23:23:41.410Z,6.87
2019-03-09T23:26:11.017Z,7.27
2019-03-09T23:28:49.933Z,6.93
2019-03-09T23:31:19.240Z,7.00
2019-03-09T23:33:48.518Z,7.13
2019-03-09T23:36:18.492Z,7.53
2019-03-09T23:38:48.405Z,6.60
2019-03-09T23:41:18.619Z,6.53
2019-03-09T23:43:48.589Z,7.13
2019-03-09T23:46:37.343Z,6.87
2019-03-09T23:49:26.636Z,7.40
2019-03-09T23:52:05.236Z,7.40
2019-03-09T23:54:36.807Z,9.03
2019-03-09T23:57:10.463Z,6.77
2019-03-09T23:59:42.685Z,6.17
